Franklin Park, Illinois
Current Conditions -  °F | °C
As of 10:51 AM on Thursday 27 Nov 2014 (Local Time) from KORD Reporting Station
Broken Clouds Broken Clouds  
Wind Chill: 12°   Ceiling: 2300
Heat Index: 25°   Visibility: 10mi
Dew Point: 16°   Wind: 16mph
Humidity: 69%   Direction: 310°NW
Pressure: 30.33"   Gusts: NA
Location:  41.94°N, 87.86°W
Report Text: KORD 271651Z 31014KT 10SM BKN023 M04/M09 A3033 RMK AO2 SLP280 T10391089
Loading
Personal Weather Stations






























Interactive Weather Map New forecast layout! Learn more

10-Day Weather Forecast

Advertisements
Track Severe Weather on mobile